createdAt,value
2023-01-05T00:01:07.212Z,89.20
2023-01-05T00:03:34.318Z,89.90
2023-01-05T00:06:05.592Z,90.30
2023-01-05T00:08:37.050Z,90.20
2023-01-05T00:11:27.649Z,90.50
2023-01-05T00:14:12.690Z,91.20
2023-01-05T00:16:57.289Z,91.40
2023-01-05T00:19:42.422Z,91.60
2023-01-05T00:22:30.243Z,91.90
2023-01-05T00:25:11.187Z,91.70
2023-01-05T00:27:42.037Z,91.50
2023-01-05T00:30:10.173Z,91.50
2023-01-05T00:32:36.465Z,91.30
2023-01-05T00:35:03.254Z,91.20
2023-01-05T00:37:33.523Z,91.00
2023-01-05T00:40:00.897Z,90.70
2023-01-05T00:42:27.216Z,90.30
2023-01-05T00:44:54.340Z,90.10
2023-01-05T00:47:20.595Z,89.90
2023-01-05T00:49:47.961Z,88.90
2023-01-05T00:52:14.651Z,88.40
2023-01-05T00:54:40.848Z,87.80
2023-01-05T00:57:07.572Z,87.90
2023-01-05T00:59:33.867Z,86.40
2023-01-05T01:02:00.265Z,86.20
2023-01-05T01:04:26.716Z,85.70
2023-01-05T01:06:53.920Z,86.70
2023-01-05T01:09:20.701Z,88.30
2023-01-05T01:11:47.247Z,87.70
2023-01-05T01:14:14.123Z,88.00
2023-01-05T01:16:44.134Z,88.20
2023-01-05T01:19:14.987Z,87.10
2023-01-05T01:21:41.429Z,86.60
2023-01-05T01:24:07.772Z,86.50
2023-01-05T01:26:34.236Z,85.80
2023-01-05T01:29:00.452Z,84.90
2023-01-05T01:31:26.734Z,84.30
2023-01-05T01:33:53.789Z,83.70
2023-01-05T01:36:20.052Z,83.60
2023-01-05T01:38:47.191Z,85.60
2023-01-05T01:41:13.946Z,82.70
2023-01-05T01:43:51.425Z,82.40
2023-01-05T01:46:19.016Z,83.10
2023-01-05T01:48:57.520Z,81.90
2023-01-05T01:51:32.231Z,81.50
2023-01-05T01:53:59.383Z,81.30
2023-01-05T01:56:27.672Z,82.40
2023-01-05T01:58:54.191Z,80.70
2023-01-05T02:01:20.641Z,80.40
2023-01-05T02:03:46.985Z,80.30
2023-01-05T02:06:13.700Z,80.40
2023-01-05T02:08:45.039Z,80.50
2023-01-05T02:11:34.316Z,81.00
2023-01-05T02:15:41.376Z,84.70
2023-01-05T02:18:30.481Z,85.90
2023-01-05T02:28:08.831Z,86.20
2023-01-05T02:31:25.283Z,89.70
2023-01-05T02:36:49.980Z,90.00
2023-01-05T02:39:42.611Z,89.80
2023-01-05T02:42:22.017Z,89.00
2023-01-05T02:44:48.568Z,88.20
2023-01-05T02:49:07.074Z,87.60
2023-01-05T02:51:38.500Z,87.00
2023-01-05T02:54:25.277Z,87.60
2023-01-05T02:56:57.341Z,89.00
2023-01-05T02:59:32.962Z,88.00
2023-01-05T03:02:06.131Z,88.00
2023-01-05T03:04:39.077Z,88.50
2023-01-05T03:07:08.271Z,88.70
2023-01-05T03:09:36.521Z,89.40
2023-01-05T03:12:46.263Z,88.30
2023-01-05T03:15:36.859Z,88.80
2023-01-05T03:18:08.081Z,90.20
2023-01-05T03:20:35.129Z,91.10
2023-01-05T03:23:22.467Z,91.50
2023-01-05T03:26:07.482Z,92.60
2023-01-05T03:32:35.107Z,92.90
2023-01-05T03:35:28.811Z,94.10
2023-01-05T03:38:38.871Z,94.30
2023-01-05T03:41:08.487Z,94.40
2023-01-05T03:43:35.652Z,95.00
2023-01-05T03:46:09.192Z,95.00
2023-01-05T03:48:35.979Z,95.20
2023-01-05T03:51:05.394Z,95.50
2023-01-05T03:53:36.947Z,95.60
2023-01-05T03:56:05.476Z,95.60
2023-01-05T03:58:34.020Z,95.70
2023-01-05T04:01:00.764Z,95.90
2023-01-05T04:03:31.646Z,93.40
2023-01-05T04:05:59.891Z,94.70
2023-01-05T04:08:27.956Z,94.80
2023-01-05T04:10:56.900Z,95.20
2023-01-05T04:13:23.054Z,95.50
2023-01-05T04:15:49.304Z,95.40
2023-01-05T04:18:49.405Z,95.80
2023-01-05T04:21:17.470Z,95.70
2023-01-05T04:23:43.625Z,95.80
2023-01-05T04:26:09.798Z,95.80
2023-01-05T04:28:36.767Z,96.20
2023-01-05T04:31:03.505Z,96.30
2023-01-05T04:33:30.013Z,96.50
2023-01-05T04:35:56.463Z,96.80
2023-01-05T04:38:22.628Z,97.00
2023-01-05T04:40:52.279Z,97.30
2023-01-05T04:43:19.297Z,97.80
2023-01-05T04:45:48.655Z,97.70
2023-01-05T04:48:15.372Z,98.20
2023-01-05T04:50:41.709Z,97.70
2023-01-05T04:53:10.036Z,97.80
2023-01-05T04:55:36.302Z,97.70
2023-01-05T04:58:05.642Z,97.70
2023-01-05T05:00:36.445Z,97.70
2023-01-05T05:03:03.144Z,97.70
2023-01-05T05:05:29.608Z,97.70
2023-01-05T05:07:55.953Z,97.70
2023-01-05T05:10:22.233Z,96.40
2023-01-05T05:12:49.356Z,96.40
2023-01-05T05:15:15.676Z,96.10
2023-01-05T05:17:41.997Z,95.60
2023-01-05T05:20:09.240Z,95.10
2023-01-05T05:22:35.770Z,95.30
2023-01-05T05:25:02.439Z,95.20
2023-01-05T05:27:28.657Z,95.00
2023-01-05T05:29:55.165Z,94.60
2023-01-05T05:32:21.369Z,94.30
2023-01-05T05:34:47.724Z,94.50
2023-01-05T05:37:13.920Z,94.80
2023-01-05T05:39:40.170Z,94.50
2023-01-05T05:42:06.350Z,94.80
2023-01-05T05:44:32.576Z,94.70
2023-01-05T05:46:59.679Z,94.60
2023-01-05T05:49:25.898Z,94.70
2023-01-05T05:51:52.139Z,94.40
2023-01-05T05:54:19.371Z,94.30
2023-01-05T05:56:46.140Z,94.30
2023-01-05T05:59:14.258Z,94.10
2023-01-05T06:01:40.589Z,94.30
2023-01-05T06:04:06.946Z,94.10
2023-01-05T06:06:33.177Z,93.90
2023-01-05T06:08:59.454Z,94.00
2023-01-05T06:11:25.665Z,93.70
2023-01-05T06:13:51.985Z,93.80
2023-01-05T06:16:19.501Z,93.30
2023-01-05T06:18:45.675Z,93.50
2023-01-05T06:21:12.894Z,93.70
2023-01-05T06:23:39.701Z,94.00
2023-01-05T06:26:06.790Z,94.10
2023-01-05T06:28:34.550Z,94.10
2023-01-05T06:31:00.936Z,94.20
2023-01-05T06:33:27.434Z,94.40
2023-01-05T06:35:53.770Z,94.40
2023-01-05T06:38:20.751Z,94.60
2023-01-05T06:40:47.749Z,94.10
2023-01-05T06:43:13.940Z,93.80
2023-01-05T06:45:40.980Z,94.00
2023-01-05T06:48:07.514Z,93.60
2023-01-05T06:50:34.408Z,93.70
2023-01-05T06:53:00.658Z,93.70
2023-01-05T06:55:27.040Z,93.60
2023-01-05T06:58:00.449Z,93.70
2023-01-05T07:00:27.384Z,93.50
2023-01-05T07:02:53.586Z,93.50
2023-01-05T07:05:20.041Z,93.20
2023-01-05T07:07:46.251Z,93.10
2023-01-05T07:10:13.009Z,93.20
2023-01-05T07:12:39.363Z,93.60
2023-01-05T07:15:08.547Z,93.20
2023-01-05T07:17:36.456Z,92.80
2023-01-05T07:20:05.568Z,93.10
2023-01-05T07:22:32.856Z,92.70
2023-01-05T07:24:59.485Z,92.90
2023-01-05T07:27:27.363Z,92.60
2023-01-05T07:29:54.089Z,92.70
2023-01-05T07:32:21.357Z,92.80
2023-01-05T07:34:55.373Z,92.60
2023-01-05T07:37:25.379Z,92.60
2023-01-05T07:39:53.059Z,92.60
2023-01-05T07:42:19.681Z,92.60
2023-01-05T07:44:47.145Z,92.60
2023-01-05T07:47:14.017Z,92.70
2023-01-05T07:49:40.922Z,92.40
2023-01-05T07:52:07.658Z,92.40
2023-01-05T07:54:35.114Z,92.40
2023-01-05T07:57:01.711Z,92.20
2023-01-05T07:59:28.399Z,91.70
2023-01-05T08:01:56.552Z,91.40
2023-01-05T08:04:24.441Z,91.20
2023-01-05T08:06:52.040Z,91.00
2023-01-05T08:09:37.567Z,90.70
2023-01-05T08:12:06.569Z,90.90
2023-01-05T08:14:34.515Z,90.40
2023-01-05T08:17:01.746Z,90.80
2023-01-05T08:19:29.454Z,90.70
2023-01-05T08:21:56.627Z,90.50
2023-01-05T08:24:25.077Z,90.50
2023-01-05T08:26:53.471Z,90.60
2023-01-05T08:29:21.176Z,90.10
2023-01-05T08:31:49.762Z,90.10
2023-01-05T08:34:19.292Z,90.10
2023-01-05T08:36:46.466Z,89.20
2023-01-05T08:39:13.551Z,88.80
2023-01-05T08:41:40.547Z,89.10
2023-01-05T08:44:11.178Z,88.60
2023-01-05T08:46:38.477Z,88.30
2023-01-05T08:49:07.145Z,88.00
2023-01-05T08:51:34.210Z,87.30
2023-01-05T08:54:00.557Z,87.50
2023-01-05T08:56:33.099Z,86.60
2023-01-05T08:59:04.102Z,86.60
2023-01-05T09:01:30.818Z,86.80
2023-01-05T09:03:58.505Z,85.60
2023-01-05T09:06:26.472Z,85.90
2023-01-05T09:08:54.277Z,85.90
2023-01-05T09:11:22.755Z,85.80
2023-01-05T09:13:53.939Z,86.00
2023-01-05T09:16:42.919Z,85.10
2023-01-05T09:19:33.714Z,85.10
2023-01-05T09:22:00.049Z,85.40
2023-01-05T09:24:26.713Z,85.20
2023-01-05T09:26:53.887Z,84.80
2023-01-05T09:29:20.534Z,85.60
2023-01-05T09:31:47.948Z,85.70
2023-01-05T09:34:15.541Z,87.10
2023-01-05T09:36:42.664Z,88.00
2023-01-05T09:39:09.177Z,89.60
2023-01-05T09:41:58.407Z,89.90
2023-01-05T09:44:38.566Z,91.10
2023-01-05T09:48:07.530Z,91.60
2023-01-05T09:50:35.081Z,91.90
2023-01-05T09:53:01.947Z,92.00
2023-01-05T09:55:30.847Z,91.90
2023-01-05T09:58:05.609Z,92.00
2023-01-05T10:00:31.929Z,92.20
2023-01-05T10:03:04.269Z,92.10
2023-01-05T10:05:30.895Z,92.00
2023-01-05T10:08:03.936Z,92.30
2023-01-05T10:10:44.209Z,92.50
2023-01-05T10:13:28.944Z,92.00
2023-01-05T10:15:55.949Z,91.90
2023-01-05T10:18:24.711Z,91.50
2023-01-05T10:22:39.140Z,91.50
2023-01-05T10:28:35.592Z,91.80
2023-01-05T10:31:03.704Z,92.30
2023-01-05T10:33:55.402Z,92.30
2023-01-05T10:37:13.071Z,92.40
2023-01-05T10:40:00.548Z,92.50
2023-01-05T10:43:04.677Z,92.30
2023-01-05T10:45:31.119Z,92.90
2023-01-05T10:47:59.827Z,95.90
2023-01-05T10:50:40.238Z,95.50
2023-01-05T10:53:18.394Z,96.10
2023-01-05T10:56:21.688Z,95.40
2023-01-05T10:58:48.378Z,95.30
2023-01-05T11:01:26.267Z,95.00
2023-01-05T11:04:29.337Z,94.30
2023-01-05T11:07:05.245Z,93.50
2023-01-05T11:09:38.005Z,94.00
2023-01-05T11:12:05.756Z,92.70
2023-01-05T11:14:40.587Z,93.60
2023-01-05T11:17:07.402Z,93.80
2023-01-05T11:19:42.117Z,93.20
2023-01-05T11:22:39.236Z,93.80
2023-01-05T11:25:52.649Z,94.30
2023-01-05T11:28:19.911Z,94.70
2023-01-05T11:31:02.732Z,94.30
2023-01-05T11:33:32.643Z,95.10
2023-01-05T11:35:59.500Z,95.40
2023-01-05T11:38:27.968Z,95.40
2023-01-05T11:40:56.330Z,95.70
2023-01-05T11:43:29.022Z,95.80
2023-01-05T11:45:58.935Z,95.80
2023-01-05T11:48:28.360Z,95.70
2023-01-05T11:50:56.611Z,96.00
2023-01-05T11:53:46.030Z,96.10
2023-01-05T11:56:21.627Z,96.00
2023-01-05T11:58:50.990Z,95.40
2023-01-05T12:01:37.639Z,95.50
2023-01-05T12:05:47.383Z,95.20
2023-01-05T12:08:20.448Z,95.60
2023-01-05T12:11:26.373Z,96.20
2023-01-05T12:14:51.574Z,96.10
2023-01-05T12:17:39.289Z,95.60
2023-01-05T12:20:30.612Z,95.20
2023-01-05T12:25:02.153Z,94.10
2023-01-05T12:34:11.165Z,93.70
2023-01-05T12:37:07.392Z,93.90
2023-01-05T12:40:31.758Z,94.00
2023-01-05T12:44:17.118Z,93.70
2023-01-05T12:49:39.921Z,92.60
2023-01-05T12:52:55.673Z,92.50
2023-01-05T12:55:28.581Z,91.90
2023-01-05T12:58:00.013Z,91.20
2023-01-05T13:00:28.336Z,91.60
2023-01-05T13:03:01.605Z,90.20
2023-01-05T13:05:44.489Z,90.20
2023-01-05T13:08:32.833Z,90.60
2023-01-05T13:11:25.077Z,90.70
2023-01-05T13:13:56.431Z,90.70
2023-01-05T13:16:32.419Z,91.10
2023-01-05T13:19:51.163Z,91.30
2023-01-05T13:22:23.204Z,91.30
2023-01-05T13:24:57.729Z,91.10
2023-01-05T13:27:25.855Z,91.40
2023-01-05T13:29:53.956Z,91.10
2023-01-05T13:32:52.586Z,90.80
2023-01-05T13:37:00.882Z,90.00
2023-01-05T13:46:18.580Z,88.70
2023-01-05T13:55:52.909Z,90.00
2023-01-05T13:59:03.885Z,87.20
2023-01-05T14:01:41.885Z,87.40
2023-01-05T14:04:20.126Z,84.90
2023-01-05T14:06:49.451Z,83.50
2023-01-05T14:09:52.988Z,83.00
2023-01-05T14:12:34.320Z,83.90
2023-01-05T14:15:29.186Z,84.30
2023-01-05T14:18:01.760Z,82.00
2023-01-05T14:20:52.119Z,81.30
2023-01-05T14:23:55.800Z,80.40
2023-01-05T14:27:02.626Z,80.40
2023-01-05T14:33:03.775Z,79.40
2023-01-05T14:35:31.244Z,80.80
2023-01-05T14:38:02.768Z,78.50
2023-01-05T14:40:39.445Z,80.20
2023-01-05T14:43:18.914Z,79.50
2023-01-05T14:46:10.395Z,78.60
2023-01-05T14:50:26.548Z,78.60
2023-01-05T14:52:58.859Z,78.00
2023-01-05T14:55:38.751Z,76.50
2023-01-05T15:02:17.642Z,76.10
2023-01-05T15:04:44.448Z,74.90
2023-01-05T15:14:35.779Z,75.20
2023-01-05T15:18:47.391Z,74.00
2023-01-05T15:21:43.096Z,75.00
2023-01-05T15:26:03.336Z,75.50
2023-01-05T15:35:30.472Z,75.60
2023-01-05T15:37:57.009Z,76.50
2023-01-05T15:40:28.480Z,76.20
2023-01-05T15:42:56.925Z,76.20
2023-01-05T15:45:29.773Z,75.70
2023-01-05T15:47:58.617Z,77.20
2023-01-05T15:50:38.611Z,76.70
2023-01-05T15:53:05.226Z,76.90
2023-01-05T15:55:31.880Z,77.10
2023-01-05T15:58:14.785Z,76.90
2023-01-05T16:00:41.169Z,76.80
2023-01-05T16:03:27.803Z,76.20
2023-01-05T16:05:59.044Z,76.50
2023-01-05T16:08:25.518Z,76.10
2023-01-05T16:10:55.336Z,77.40
2023-01-05T16:20:14.635Z,77.30
2023-01-05T16:22:55.124Z,76.60
2023-01-05T16:25:29.722Z,76.60
2023-01-05T16:28:02.810Z,77.60
2023-01-05T16:30:40.553Z,77.30
2023-01-05T16:33:59.886Z,77.20
2023-01-05T16:36:26.184Z,76.90
2023-01-05T16:38:52.925Z,77.40
2023-01-05T16:42:32.366Z,77.30
2023-01-05T16:44:58.671Z,77.20
2023-01-05T16:47:38.496Z,77.40
2023-01-05T16:53:10.136Z,77.20
2023-01-05T16:55:36.808Z,77.60
2023-01-05T16:58:05.441Z,79.60
2023-01-05T17:00:36.733Z,81.30
2023-01-05T17:03:26.329Z,82.50
2023-01-05T17:05:53.261Z,82.90
2023-01-05T17:08:21.531Z,82.60
2023-01-05T17:10:49.698Z,82.30
2023-01-05T17:13:20.746Z,82.10
2023-01-05T17:15:50.395Z,81.10
2023-01-05T17:20:49.429Z,80.60
2023-01-05T17:30:12.574Z,80.30
2023-01-05T17:32:38.890Z,79.90
2023-01-05T17:37:32.644Z,79.80
2023-01-05T17:39:58.953Z,81.00
2023-01-05T17:42:43.641Z,81.20
2023-01-05T17:45:29.437Z,82.80
2023-01-05T17:47:56.782Z,84.30
2023-01-05T17:50:27.485Z,84.50
2023-01-05T17:52:55.475Z,85.90
2023-01-05T17:55:21.908Z,86.10
2023-01-05T17:57:48.128Z,85.90
2023-01-05T18:00:16.935Z,85.90
2023-01-05T18:02:44.517Z,86.40
2023-01-05T18:05:11.933Z,87.30
2023-01-05T18:07:38.945Z,88.00
2023-01-05T18:10:22.545Z,90.30
2023-01-05T18:12:48.853Z,91.40
2023-01-05T18:15:15.687Z,92.00
2023-01-05T18:17:41.953Z,92.20
2023-01-05T18:20:11.905Z,92.00
2023-01-05T18:22:38.258Z,91.60
2023-01-05T18:27:35.042Z,91.60
2023-01-05T18:30:04.871Z,91.80
2023-01-05T18:34:57.186Z,92.00
2023-01-05T18:37:23.947Z,91.40
2023-01-05T18:39:50.197Z,90.70
2023-01-05T18:42:17.221Z,89.80
2023-01-05T18:44:43.803Z,88.20
2023-01-05T18:47:10.166Z,86.70
2023-01-05T18:49:36.985Z,84.40
2023-01-05T18:52:03.984Z,84.00
2023-01-05T18:54:31.269Z,85.10
2023-01-05T18:56:57.750Z,84.70
2023-01-05T18:59:25.132Z,84.10
2023-01-05T19:01:51.718Z,83.60
2023-01-05T19:04:18.231Z,83.00
2023-01-05T19:06:46.125Z,84.50
2023-01-05T19:09:13.783Z,83.40
2023-01-05T19:11:44.690Z,83.30
2023-01-05T19:14:11.160Z,83.20
2023-01-05T19:16:37.391Z,82.40
2023-01-05T19:19:07.929Z,82.70
2023-01-05T19:21:36.620Z,82.70
2023-01-05T19:24:03.789Z,83.30
2023-01-05T19:26:32.739Z,82.30
2023-01-05T19:29:00.293Z,82.70
2023-01-05T19:31:28.387Z,82.80
2023-01-05T19:33:55.838Z,83.70
2023-01-05T19:36:24.159Z,83.20
2023-01-05T19:38:51.289Z,83.50
2023-01-05T19:41:23.514Z,83.50
2023-01-05T19:43:52.133Z,83.80
2023-01-05T19:46:20.496Z,84.30
2023-01-05T19:48:47.487Z,83.80
2023-01-05T19:51:24.096Z,84.80
2023-01-05T19:53:59.328Z,84.90
2023-01-05T19:56:27.817Z,85.30
2023-01-05T19:58:57.104Z,85.10
2023-01-05T20:01:24.330Z,85.70
2023-01-05T20:03:51.506Z,86.00
2023-01-05T20:06:19.567Z,83.40
2023-01-05T20:08:51.949Z,84.70
2023-01-05T20:11:35.091Z,84.80
2023-01-05T20:14:03.356Z,83.60
2023-01-05T20:16:29.986Z,83.90
2023-01-05T20:18:56.388Z,83.40
2023-01-05T20:21:24.240Z,82.20
2023-01-05T20:23:50.517Z,82.40
2023-01-05T20:26:20.591Z,82.40
2023-01-05T20:28:47.473Z,81.70
2023-01-05T20:31:23.373Z,82.20
2023-01-05T20:33:53.975Z,82.60
2023-01-05T20:36:23.556Z,82.40
2023-01-05T20:38:52.597Z,83.10
2023-01-05T20:41:31.520Z,82.30
2023-01-05T20:44:00.193Z,83.00
2023-01-05T20:46:29.821Z,82.90
2023-01-05T20:48:59.074Z,82.60
2023-01-05T20:51:31.088Z,82.90
2023-01-05T20:54:04.303Z,81.60
2023-01-05T20:56:38.125Z,81.80
2023-01-05T20:59:06.114Z,81.80
2023-01-05T21:01:35.597Z,81.30
2023-01-05T21:04:04.844Z,81.00
2023-01-05T21:06:31.823Z,81.40
2023-01-05T21:08:58.631Z,80.50
2023-01-05T21:11:29.062Z,81.70
2023-01-05T21:14:00.393Z,80.20
2023-01-05T21:16:31.768Z,79.90
2023-01-05T21:19:04.799Z,79.60
2023-01-05T21:21:34.315Z,79.60
2023-01-05T21:24:04.618Z,79.20
2023-01-05T21:26:32.302Z,80.90
2023-01-05T21:29:00.197Z,80.20
2023-01-05T21:31:27.890Z,80.00
2023-01-05T21:33:54.924Z,80.60
2023-01-05T21:36:27.808Z,80.30
2023-01-05T21:39:06.624Z,79.80
2023-01-05T21:41:52.061Z,80.20
2023-01-05T21:44:19.231Z,80.50
2023-01-05T21:46:46.310Z,80.60
2023-01-05T21:49:14.116Z,80.10
2023-01-05T21:52:00.302Z,81.60
2023-01-05T21:54:45.286Z,81.40
2023-01-05T21:57:11.668Z,82.00
2023-01-05T21:59:38.140Z,81.50
2023-01-05T22:02:04.548Z,82.00
2023-01-05T22:04:32.206Z,81.90
2023-01-05T22:06:58.964Z,82.70
2023-01-05T22:09:25.346Z,82.40
2023-01-05T22:11:51.634Z,82.70
2023-01-05T22:14:20.571Z,83.20
2023-01-05T22:16:46.930Z,83.20
2023-01-05T22:19:14.366Z,82.80
2023-01-05T22:21:40.679Z,83.50
2023-01-05T22:24:09.877Z,83.60
2023-01-05T22:26:36.252Z,83.70
2023-01-05T22:29:03.207Z,84.80
2023-01-05T22:31:30.506Z,84.40
2023-01-05T22:33:58.160Z,84.20
2023-01-05T22:36:25.644Z,84.30
2023-01-05T22:38:53.409Z,84.70
2023-01-05T22:41:22.137Z,84.10
2023-01-05T22:43:49.905Z,84.00
2023-01-05T22:46:21.246Z,84.30
2023-01-05T22:48:48.591Z,83.10
2023-01-05T22:51:21.337Z,83.60
2023-01-05T22:53:49.441Z,83.00
2023-01-05T22:56:16.484Z,83.50
2023-01-05T22:58:42.805Z,82.30
2023-01-05T23:01:12.971Z,82.50
2023-01-05T23:03:40.827Z,82.50
2023-01-05T23:06:08.689Z,82.90
2023-01-05T23:08:36.221Z,81.90
2023-01-05T23:11:08.099Z,82.60
2023-01-05T23:13:35.164Z,82.60
2023-01-05T23:16:01.353Z,82.90
2023-01-05T23:18:27.689Z,83.50
2023-01-05T23:20:55.053Z,83.10
2023-01-05T23:23:22.321Z,83.20
2023-01-05T23:25:49.245Z,82.10
2023-01-05T23:28:17.358Z,82.30
2023-01-05T23:30:48.329Z,82.00
2023-01-05T23:33:15.117Z,82.90
2023-01-05T23:35:45.273Z,82.50
2023-01-05T23:38:13.771Z,82.50
2023-01-05T23:40:41.783Z,82.20
2023-01-05T23:43:09.900Z,82.70
2023-01-05T23:45:36.306Z,82.20
2023-01-05T23:48:02.743Z,82.20
2023-01-05T23:50:29.461Z,82.90
2023-01-05T23:52:55.859Z,82.70
2023-01-05T23:55:22.193Z,82.00
2023-01-05T23:57:48.409Z,83.20
